Wasilla, AK (99654)

7:06 AM AKST on December 09, 2016 (GMT -0900)
| | Change Station

Elev -9999 ft 0.00 °N, 0.00 °E | Updated 9 minutes ago

Overcast
Overcast
61 °F
Feels Like 61 °F
N
3
Wind Variable Wind from North
Gusts mph

Today
High -- | Low -- °F
--% Chance of Precip.
Yesterday
High -- | Low -- °F
Precip. -- in
Pressure 30.09 in
Visibility 10.0 miles
Clouds Overcast 800 ft
Dew Point 41 °F
Humidity 47%
Rainfall --
Snow Depth Not available.
10:04 AM 3:36 PM
Waxing Gibbous, 75% visible
METAR PAAQ 091553Z AUTO 15003KT 10SM OVC008 M09/M12 A3007 RMK AO2 SLP189 T10941117 TSNO
Pressure 30.09 in
Visibility 10.0 miles
Clouds Overcast 800 ft
Dew Point 41 °F
Humidity 47%
Rainfall --
Snow Depth Not available.
10:04 AM 3:36 PM
Waxing Gibbous, 75% visible
METAR PAAQ 091553Z AUTO 15003KT 10SM OVC008 M09/M12 A3007 RMK AO2 SLP189 T10941117 TSNO

10-Day Weather Forecast

Almanac

Astronomy

Dec. 09, 2016 Rise Set
Actual Time
Civil Twilight
Nautical Twilight
Astronomical Twilight
Moon
Length of Visible Light
Length of Day
Tomorrow will be .
, % of the Moon is Illuminated

Today's Extremes

State Highs State Lows

Community

WunderPhotos

Upload Photos

1,956,462 photos uploaded!

WunderBlog® & News

Nearby

Air Quality

  Air Quality AQ Index Pollutant
Not available.

Snow Depth

Station Depth Elevation

Earthquake Activity

City Distance Mag. Time & Date
Minimum magnitude displayed is 2.5.

Coastal Water Temperatures

Place Temperature

Stations

Nearby Weather Stations

Station Location Temp. Windchill Dew Point Humidity Wind Precip. Elev Updated Type
                   

Watches & Warnings

There are currently no watches in effect.